createdAt,value
2022-12-29T00:00:09.422Z,2.10
2022-12-29T00:01:12.827Z,2.10
2022-12-29T00:02:15.513Z,2.10
2022-12-29T00:03:17.958Z,2.10
2022-12-29T00:04:22.537Z,2.10
2022-12-29T00:05:25.699Z,2.10
2022-12-29T00:06:28.000Z,2.10
2022-12-29T00:07:30.240Z,2.10
2022-12-29T00:08:41.608Z,2.10
2022-12-29T00:09:44.931Z,2.10
2022-12-29T00:10:48.873Z,2.20
2022-12-29T00:11:51.351Z,2.10
2022-12-29T00:13:12.218Z,2.10
2022-12-29T00:14:33.305Z,2.20
2022-12-29T00:15:40.344Z,2.10
2022-12-29T00:16:44.901Z,2.10
2022-12-29T00:17:47.867Z,2.10
2022-12-29T00:18:49.927Z,2.10
2022-12-29T00:20:10.555Z,2.10
2022-12-29T00:21:36.832Z,2.10
2022-12-29T00:22:57.839Z,2.10
2022-12-29T00:24:33.193Z,2.10
2022-12-29T00:25:56.372Z,2.10
2022-12-29T00:27:23.766Z,2.00
2022-12-29T00:28:46.399Z,2.10
2022-12-29T00:30:07.863Z,2.00
2022-12-29T00:31:32.484Z,2.10
2022-12-29T00:32:53.334Z,2.00
2022-12-29T00:34:14.727Z,2.00
2022-12-29T00:35:27.876Z,2.00
2022-12-29T00:36:40.957Z,2.00
2022-12-29T00:38:07.708Z,2.00
2022-12-29T00:39:38.951Z,2.00
2022-12-29T00:41:00.625Z,2.10
2022-12-29T00:42:39.690Z,2.10
2022-12-29T00:44:00.930Z,2.00
2022-12-29T00:45:05.327Z,2.00
2022-12-29T00:46:07.827Z,2.00
2022-12-29T00:47:11.315Z,2.10
2022-12-29T00:48:13.701Z,2.00
2022-12-29T00:49:32.192Z,2.10
2022-12-29T00:50:34.198Z,2.10
2022-12-29T00:51:37.183Z,2.10
2022-12-29T00:52:39.807Z,2.10
2022-12-29T00:53:41.860Z,2.20
2022-12-29T00:54:46.075Z,2.10
2022-12-29T00:55:48.865Z,2.20
2022-12-29T00:56:52.615Z,2.10
2022-12-29T00:57:55.315Z,2.20
2022-12-29T00:59:01.440Z,2.10
2022-12-29T01:00:04.480Z,2.20
2022-12-29T01:01:09.525Z,2.10
2022-12-29T01:02:12.448Z,2.10
2022-12-29T01:03:14.901Z,2.10
2022-12-29T01:04:16.942Z,2.20
2022-12-29T01:05:20.616Z,2.20
2022-12-29T01:06:24.949Z,2.20
2022-12-29T01:07:29.369Z,2.20
2022-12-29T01:08:31.679Z,2.20
2022-12-29T01:09:53.878Z,2.20
2022-12-29T01:11:00.576Z,2.10
2022-12-29T01:12:05.634Z,2.20
2022-12-29T01:13:08.245Z,2.20
2022-12-29T01:14:10.954Z,2.10
2022-12-29T01:15:15.634Z,2.20
2022-12-29T01:16:17.551Z,2.10
2022-12-29T01:17:56.902Z,2.20
2022-12-29T01:19:01.757Z,2.20
2022-12-29T01:20:24.989Z,2.20
2022-12-29T01:21:56.124Z,2.20
2022-12-29T01:23:36.352Z,2.20
2022-12-29T01:24:40.869Z,2.20
2022-12-29T01:25:51.783Z,2.10
2022-12-29T01:26:59.319Z,2.10
2022-12-29T01:28:08.868Z,2.20
2022-12-29T01:29:12.508Z,2.20
2022-12-29T01:30:18.386Z,2.10
2022-12-29T01:31:32.063Z,2.20
2022-12-29T01:32:42.927Z,2.20
2022-12-29T01:33:52.136Z,2.20
2022-12-29T01:34:55.331Z,2.20
2022-12-29T01:36:07.854Z,2.20
2022-12-29T01:37:11.999Z,2.20
2022-12-29T01:38:17.567Z,2.20
2022-12-29T01:39:21.562Z,2.30
2022-12-29T01:40:26.019Z,2.20
2022-12-29T01:41:30.067Z,2.20
2022-12-29T01:42:32.904Z,2.20
2022-12-29T01:44:25.624Z,2.20
2022-12-29T01:45:37.220Z,2.20
2022-12-29T01:46:45.427Z,2.20
2022-12-29T01:47:57.986Z,2.20
2022-12-29T01:49:18.536Z,2.20
2022-12-29T01:50:45.188Z,2.20
2022-12-29T01:52:04.064Z,2.20
2022-12-29T01:53:21.384Z,2.10
2022-12-29T01:54:39.934Z,2.10
2022-12-29T01:56:14.375Z,2.20
2022-12-29T01:57:40.142Z,2.20
2022-12-29T01:58:53.558Z,2.20
2022-12-29T02:00:14.878Z,2.10
2022-12-29T02:24:22.954Z,2.00
2022-12-29T02:25:44.707Z,2.00
2022-12-29T02:27:28.378Z,2.00
2022-12-29T02:33:22.816Z,2.00
2022-12-29T02:35:04.989Z,2.00
2022-12-29T02:36:44.543Z,2.10
2022-12-29T02:38:46.182Z,2.10
2022-12-29T02:57:27.874Z,2.10
2022-12-29T03:00:14.014Z,2.10
2022-12-29T03:02:17.105Z,2.10
2022-12-29T03:03:36.665Z,2.10
2022-12-29T03:04:58.441Z,2.10
2022-12-29T03:06:43.908Z,2.10
2022-12-29T03:07:51.909Z,2.10
2022-12-29T03:09:19.126Z,2.10
2022-12-29T03:10:49.472Z,2.10
2022-12-29T03:12:34.047Z,2.20
2022-12-29T03:14:16.183Z,2.20
2022-12-29T03:16:11.725Z,2.20
2022-12-29T03:17:37.785Z,2.20
2022-12-29T03:18:53.629Z,2.20
2022-12-29T03:20:03.096Z,2.20
2022-12-29T03:21:17.536Z,2.20
2022-12-29T03:22:29.819Z,2.20
2022-12-29T03:23:35.773Z,2.20
2022-12-29T03:24:45.489Z,2.20
2022-12-29T03:25:53.997Z,2.20
2022-12-29T03:27:06.387Z,2.30
2022-12-29T03:28:30.605Z,2.30
2022-12-29T03:29:45.407Z,2.30
2022-12-29T03:31:00.554Z,2.30
2022-12-29T03:32:05.588Z,2.20
2022-12-29T03:33:13.937Z,2.30
2022-12-29T03:34:17.966Z,2.30
2022-12-29T03:35:26.031Z,2.30
2022-12-29T03:36:50.664Z,2.30
2022-12-29T03:38:14.983Z,2.30
2022-12-29T03:39:21.961Z,2.30
2022-12-29T03:40:26.026Z,2.30
2022-12-29T03:41:32.641Z,2.30
2022-12-29T03:42:38.279Z,2.40
2022-12-29T03:43:41.542Z,2.30
2022-12-29T03:44:45.617Z,2.30
2022-12-29T03:45:50.931Z,2.40
2022-12-29T03:46:57.192Z,2.30
2022-12-29T03:48:10.182Z,2.40
2022-12-29T03:49:12.421Z,2.40
2022-12-29T03:50:21.469Z,2.30
2022-12-29T03:51:27.279Z,2.40
2022-12-29T03:52:30.087Z,2.40
2022-12-29T03:53:41.733Z,2.40
2022-12-29T03:54:47.974Z,2.30
2022-12-29T03:55:57.665Z,2.40
2022-12-29T03:57:01.108Z,2.40
2022-12-29T03:58:04.224Z,2.40
2022-12-29T03:59:10.139Z,2.40
2022-12-29T04:00:15.024Z,2.40
2022-12-29T04:01:20.124Z,2.40
2022-12-29T04:02:25.177Z,2.40
2022-12-29T04:03:28.768Z,2.40
2022-12-29T04:04:31.361Z,2.40
2022-12-29T04:05:34.779Z,2.40
2022-12-29T04:06:36.988Z,2.40
2022-12-29T04:07:41.767Z,2.40
2022-12-29T04:08:45.557Z,2.40
2022-12-29T04:09:53.118Z,2.40
2022-12-29T04:10:55.954Z,2.40
2022-12-29T04:11:57.940Z,2.40
2022-12-29T04:13:00.852Z,2.40
2022-12-29T04:14:05.109Z,2.50
2022-12-29T04:15:08.320Z,2.40
2022-12-29T04:16:12.345Z,2.40
2022-12-29T04:17:18.178Z,2.40
2022-12-29T04:18:23.745Z,2.40
2022-12-29T04:19:32.210Z,2.40
2022-12-29T04:20:57.116Z,2.40
2022-12-29T04:22:04.397Z,2.40
2022-12-29T04:23:11.428Z,2.40
2022-12-29T04:24:21.698Z,2.40
2022-12-29T04:25:25.172Z,2.40
2022-12-29T04:26:29.186Z,2.40
2022-12-29T04:27:31.431Z,2.40
2022-12-29T04:28:33.566Z,2.40
2022-12-29T04:29:36.360Z,2.40
2022-12-29T04:30:39.645Z,2.40
2022-12-29T04:31:42.224Z,2.40
2022-12-29T04:32:44.659Z,2.40
2022-12-29T04:33:49.699Z,2.40
2022-12-29T04:34:55.172Z,2.40
2022-12-29T04:36:00.316Z,2.50
2022-12-29T04:37:03.804Z,2.40
2022-12-29T04:38:07.935Z,2.40
2022-12-29T04:39:14.810Z,2.40
2022-12-29T04:40:17.106Z,2.50
2022-12-29T04:41:19.679Z,2.40
2022-12-29T04:42:23.029Z,2.50
2022-12-29T04:43:25.473Z,2.50
2022-12-29T04:44:28.659Z,2.40
2022-12-29T04:47:17.047Z,2.40
2022-12-29T04:48:38.994Z,2.40
2022-12-29T04:50:11.543Z,2.40
2022-12-29T04:51:31.357Z,2.40
2022-12-29T04:53:05.752Z,2.40
2022-12-29T04:54:10.375Z,2.40
2022-12-29T04:55:41.493Z,2.40
2022-12-29T04:57:03.727Z,2.40
2022-12-29T05:04:54.093Z,2.30
2022-12-29T05:06:06.694Z,2.30
2022-12-29T05:07:14.505Z,2.40
2022-12-29T05:08:28.028Z,2.30
2022-12-29T05:09:44.979Z,2.30
2022-12-29T05:11:02.031Z,2.30
2022-12-29T05:12:12.244Z,2.40
2022-12-29T05:13:18.745Z,2.40
2022-12-29T05:14:33.125Z,2.40
2022-12-29T05:15:39.456Z,2.40
2022-12-29T05:16:51.420Z,2.40
2022-12-29T05:18:25.843Z,2.50
2022-12-29T05:19:31.982Z,2.40
2022-12-29T05:20:35.899Z,2.40
2022-12-29T05:21:39.891Z,2.50
2022-12-29T05:22:41.906Z,2.50
2022-12-29T05:23:44.102Z,2.50
2022-12-29T05:24:48.768Z,2.50
2022-12-29T05:25:50.701Z,2.50
2022-12-29T05:26:52.835Z,2.60
2022-12-29T05:27:56.562Z,2.50
2022-12-29T05:29:00.955Z,2.60
2022-12-29T05:30:07.256Z,2.60
2022-12-29T05:31:11.680Z,2.60
2022-12-29T05:32:14.166Z,2.60
2022-12-29T05:33:21.067Z,2.50
2022-12-29T05:34:24.696Z,2.60
2022-12-29T05:35:28.193Z,2.60
2022-12-29T05:36:35.794Z,2.60
2022-12-29T05:37:43.413Z,2.60
2022-12-29T05:38:51.664Z,2.60
2022-12-29T05:39:58.733Z,2.60
2022-12-29T05:45:02.641Z,2.60
2022-12-29T05:46:05.299Z,2.50
2022-12-29T05:47:09.657Z,2.50
2022-12-29T05:48:13.544Z,2.50
2022-12-29T05:49:18.012Z,2.50
2022-12-29T05:50:27.677Z,2.60
2022-12-29T05:51:30.746Z,2.60
2022-12-29T05:52:33.949Z,2.60
2022-12-29T05:53:43.527Z,2.60
2022-12-29T05:54:46.492Z,2.60
2022-12-29T05:55:52.491Z,2.60
2022-12-29T05:56:58.518Z,2.60
2022-12-29T05:59:30.254Z,2.60
2022-12-29T06:00:48.128Z,2.60
2022-12-29T06:02:00.470Z,2.60
2022-12-29T06:03:13.504Z,2.60
2022-12-29T06:04:32.069Z,2.60
2022-12-29T06:05:41.720Z,2.60
2022-12-29T06:06:50.052Z,2.60
2022-12-29T06:07:55.889Z,2.60
2022-12-29T06:09:07.381Z,2.60
2022-12-29T06:10:11.043Z,2.60
2022-12-29T06:11:14.388Z,2.60
2022-12-29T06:12:17.712Z,2.60
2022-12-29T06:13:20.769Z,2.60
2022-12-29T06:14:27.011Z,2.60
2022-12-29T06:15:29.834Z,2.60
2022-12-29T06:18:28.898Z,2.70
2022-12-29T06:19:48.317Z,2.60
2022-12-29T06:21:04.060Z,2.60
2022-12-29T06:23:38.291Z,2.60
2022-12-29T06:26:39.801Z,2.70
2022-12-29T06:28:06.703Z,2.60
2022-12-29T06:29:34.965Z,2.60
2022-12-29T06:31:04.433Z,2.60
2022-12-29T06:32:09.298Z,2.60
2022-12-29T06:33:16.531Z,2.60
2022-12-29T06:34:21.467Z,2.60
2022-12-29T06:35:46.350Z,2.70
2022-12-29T06:41:00.032Z,2.70
2022-12-29T06:42:03.733Z,2.70
2022-12-29T06:43:26.338Z,2.60
2022-12-29T06:44:47.206Z,2.60
2022-12-29T06:45:57.287Z,2.60
2022-12-29T06:47:01.382Z,2.60
2022-12-29T06:48:08.545Z,2.60
2022-12-29T06:49:21.193Z,2.60
2022-12-29T06:50:51.701Z,2.60
2022-12-29T06:52:59.313Z,2.60
2022-12-29T06:54:17.058Z,2.60
2022-12-29T06:55:47.060Z,2.70
2022-12-29T06:57:05.703Z,2.70
2022-12-29T07:00:26.318Z,2.60
2022-12-29T07:03:16.365Z,2.60
2022-12-29T07:04:22.014Z,2.60
2022-12-29T07:05:24.039Z,2.60
2022-12-29T07:06:33.956Z,2.60
2022-12-29T07:07:44.661Z,2.60
2022-12-29T07:08:46.647Z,2.70
2022-12-29T07:09:49.558Z,2.70
2022-12-29T07:10:55.123Z,2.70
2022-12-29T07:11:57.266Z,2.70
2022-12-29T07:13:00.605Z,2.70
2022-12-29T07:14:11.464Z,2.70
2022-12-29T07:15:15.271Z,2.70
2022-12-29T07:16:17.836Z,2.70
2022-12-29T07:17:20.712Z,2.70
2022-12-29T07:18:25.983Z,2.70
2022-12-29T07:19:29.941Z,2.70
2022-12-29T07:20:40.039Z,2.70
2022-12-29T07:21:45.832Z,2.80
2022-12-29T07:22:51.950Z,2.80
2022-12-29T07:24:02.572Z,2.80
2022-12-29T07:25:07.167Z,2.80
2022-12-29T07:26:16.538Z,2.80
2022-12-29T07:27:26.358Z,2.80
2022-12-29T07:28:31.166Z,2.80
2022-12-29T07:29:39.684Z,2.80
2022-12-29T07:30:42.351Z,2.80
2022-12-29T07:31:45.292Z,2.80
2022-12-29T07:32:49.486Z,2.80
2022-12-29T07:33:53.316Z,2.80
2022-12-29T07:35:06.141Z,2.80
2022-12-29T07:36:10.927Z,2.80
2022-12-29T07:37:18.643Z,2.80
2022-12-29T07:38:24.670Z,2.80
2022-12-29T07:39:28.844Z,2.80
2022-12-29T07:40:35.204Z,2.90
2022-12-29T07:41:39.608Z,2.90
2022-12-29T07:42:43.823Z,2.80
2022-12-29T07:43:51.299Z,2.90
2022-12-29T07:44:53.591Z,2.90
2022-12-29T07:45:58.565Z,2.90
2022-12-29T07:47:11.376Z,2.90
2022-12-29T07:48:13.893Z,2.90
2022-12-29T07:49:18.912Z,2.90
2022-12-29T07:50:24.557Z,2.90
2022-12-29T07:51:26.511Z,2.90
2022-12-29T07:52:28.789Z,2.90
2022-12-29T07:53:36.166Z,2.90
2022-12-29T07:54:49.786Z,2.90
2022-12-29T07:57:51.088Z,2.90
2022-12-29T07:58:57.345Z,2.90
2022-12-29T08:00:05.582Z,2.90
2022-12-29T08:01:21.779Z,2.90
2022-12-29T08:02:28.023Z,2.80
2022-12-29T08:03:41.123Z,2.90
2022-12-29T08:04:50.719Z,2.90
2022-12-29T08:08:57.558Z,2.90
2022-12-29T08:13:43.422Z,2.80
2022-12-29T08:15:07.914Z,2.80
2022-12-29T08:16:14.658Z,2.80
2022-12-29T08:21:20.172Z,2.80
2022-12-29T08:22:26.851Z,2.80
2022-12-29T08:23:30.720Z,2.80
2022-12-29T08:31:30.547Z,2.90
2022-12-29T08:32:47.859Z,2.80
2022-12-29T08:33:56.186Z,2.80
2022-12-29T08:35:49.791Z,2.90
2022-12-29T08:37:59.121Z,2.90
2022-12-29T08:39:14.328Z,2.90
2022-12-29T08:40:18.726Z,2.90
2022-12-29T08:41:32.230Z,2.90
2022-12-29T08:43:11.191Z,2.90
2022-12-29T08:44:18.237Z,3.00
2022-12-29T08:45:36.527Z,2.90
2022-12-29T08:46:38.908Z,2.90
2022-12-29T08:47:49.120Z,2.90
2022-12-29T08:50:30.645Z,3.00
2022-12-29T08:51:40.140Z,3.00
2022-12-29T08:52:43.569Z,3.00
2022-12-29T08:53:59.953Z,3.00
2022-12-29T08:55:02.785Z,3.00
2022-12-29T08:56:14.173Z,3.10
2022-12-29T08:57:35.821Z,3.10
2022-12-29T08:58:40.448Z,3.10
2022-12-29T09:01:06.340Z,3.10
2022-12-29T09:02:12.547Z,3.10
2022-12-29T09:04:04.223Z,3.10
2022-12-29T09:05:03.237Z,3.10
2022-12-29T09:06:10.663Z,3.10
2022-12-29T09:07:17.314Z,3.10
2022-12-29T09:08:25.605Z,3.20
2022-12-29T09:09:28.639Z,3.20
2022-12-29T09:10:31.113Z,3.30
2022-12-29T09:11:33.231Z,3.20
2022-12-29T09:12:41.017Z,3.20
2022-12-29T09:13:44.590Z,3.20
2022-12-29T09:14:51.753Z,3.20
2022-12-29T09:16:00.407Z,3.30
2022-12-29T09:17:22.089Z,3.30
2022-12-29T09:18:25.977Z,3.30
2022-12-29T09:19:28.614Z,3.30
2022-12-29T09:20:32.076Z,3.30
2022-12-29T09:21:37.098Z,3.30
2022-12-29T09:22:42.255Z,3.30
2022-12-29T09:23:44.847Z,3.30
2022-12-29T09:24:47.675Z,3.30
2022-12-29T09:25:49.855Z,3.30
2022-12-29T09:26:53.310Z,3.30
2022-12-29T09:27:56.004Z,3.30
2022-12-29T09:28:59.766Z,3.30
2022-12-29T09:30:02.607Z,3.30
2022-12-29T09:31:06.324Z,3.30
2022-12-29T09:32:13.934Z,3.30
2022-12-29T09:33:19.859Z,3.40
2022-12-29T09:34:22.689Z,3.40
2022-12-29T09:35:27.236Z,3.40
2022-12-29T09:36:31.482Z,3.30
2022-12-29T09:37:34.049Z,3.40
2022-12-29T09:38:38.402Z,3.40
2022-12-29T09:39:42.828Z,3.40
2022-12-29T09:40:52.505Z,3.40
2022-12-29T09:42:17.976Z,3.40
2022-12-29T09:43:33.240Z,3.40
2022-12-29T09:45:09.963Z,3.30
2022-12-29T09:46:33.490Z,3.30
2022-12-29T09:47:39.831Z,3.30
2022-12-29T09:49:14.888Z,3.30
2022-12-29T09:50:34.850Z,3.30
2022-12-29T09:53:27.788Z,3.30
2022-12-29T09:54:58.130Z,3.30
2022-12-29T09:59:21.316Z,3.30
2022-12-29T10:39:44.966Z,3.40
2022-12-29T10:59:33.334Z,3.40
2022-12-29T11:01:20.045Z,3.40
2022-12-29T11:08:05.584Z,3.50
2022-12-29T11:14:06.854Z,3.50
2022-12-29T11:15:09.902Z,3.50
2022-12-29T11:16:46.785Z,3.60
2022-12-29T11:24:35.944Z,3.60
2022-12-29T11:25:43.250Z,3.60
2022-12-29T11:27:11.189Z,3.60
2022-12-29T11:28:20.862Z,3.60
2022-12-29T11:31:18.474Z,3.60
2022-12-29T11:32:43.982Z,3.60
2022-12-29T11:42:12.907Z,3.50
2022-12-29T11:43:37.678Z,3.50
2022-12-29T11:45:12.690Z,3.50
2022-12-29T11:48:22.837Z,3.50
2022-12-29T11:49:27.641Z,3.60
2022-12-29T11:50:34.314Z,3.70
2022-12-29T11:51:43.264Z,3.70
2022-12-29T11:52:45.613Z,3.80
2022-12-29T11:53:51.614Z,3.80
2022-12-29T11:54:56.038Z,3.80
2022-12-29T11:56:09.870Z,3.80
2022-12-29T11:57:18.141Z,3.80
2022-12-29T11:58:20.858Z,3.90
2022-12-29T11:59:31.083Z,3.90
2022-12-29T12:00:41.474Z,3.90
2022-12-29T12:01:45.119Z,3.90
2022-12-29T12:02:57.911Z,3.80
2022-12-29T12:04:17.150Z,3.90
2022-12-29T12:05:32.328Z,3.80
2022-12-29T12:06:39.023Z,3.80
2022-12-29T12:07:48.259Z,3.90
2022-12-29T12:08:57.367Z,3.80
2022-12-29T12:10:08.058Z,3.90
2022-12-29T12:11:17.879Z,3.90
2022-12-29T12:12:34.520Z,3.90
2022-12-29T12:13:56.957Z,3.90
2022-12-29T12:15:01.362Z,3.90
2022-12-29T12:16:13.648Z,3.90
2022-12-29T12:17:50.934Z,3.90
2022-12-29T12:18:58.497Z,3.90
2022-12-29T12:20:25.215Z,3.90
2022-12-29T12:21:33.431Z,3.90
2022-12-29T12:22:44.693Z,3.90
2022-12-29T12:23:58.603Z,3.90
2022-12-29T12:25:47.874Z,3.90
2022-12-29T12:27:08.731Z,3.90
2022-12-29T12:28:37.578Z,3.80
2022-12-29T12:30:00.819Z,3.80
2022-12-29T12:31:06.246Z,3.80
2022-12-29T12:32:24.419Z,3.80
2022-12-29T12:33:36.210Z,3.80
2022-12-29T12:34:43.061Z,3.90
2022-12-29T12:36:09.462Z,3.90
2022-12-29T12:37:36.595Z,3.90
2022-12-29T12:38:56.827Z,3.90
2022-12-29T12:40:23.390Z,3.90
2022-12-29T12:42:07.144Z,3.90
2022-12-29T12:43:45.330Z,3.90
2022-12-29T12:45:08.305Z,3.90
2022-12-29T12:46:27.718Z,3.90
2022-12-29T12:47:56.549Z,3.90
2022-12-29T12:49:22.956Z,3.90
2022-12-29T12:50:46.427Z,3.90
2022-12-29T12:52:10.692Z,3.80
2022-12-29T12:53:24.397Z,3.90
2022-12-29T12:55:10.664Z,3.80
2022-12-29T12:56:34.141Z,3.80
2022-12-29T12:58:02.049Z,3.80
2022-12-29T12:59:31.147Z,3.80
2022-12-29T13:00:52.156Z,3.80
2022-12-29T13:02:16.009Z,3.80
2022-12-29T13:03:51.599Z,3.70
2022-12-29T13:05:24.321Z,3.80
2022-12-29T13:06:53.977Z,3.70
2022-12-29T13:08:07.350Z,3.70
2022-12-29T13:09:39.632Z,3.70
2022-12-29T13:10:54.485Z,3.70
2022-12-29T13:12:23.015Z,3.70
2022-12-29T13:13:34.444Z,3.70
2022-12-29T13:15:03.956Z,3.70
2022-12-29T13:16:27.136Z,3.70
2022-12-29T13:17:42.279Z,3.70
2022-12-29T13:18:49.102Z,3.80
2022-12-29T13:20:18.766Z,3.70
2022-12-29T13:22:00.184Z,3.70
2022-12-29T13:23:29.388Z,3.80
2022-12-29T13:24:59.444Z,3.70
2022-12-29T13:26:38.405Z,3.70
2022-12-29T13:28:05.423Z,3.70
2022-12-29T13:29:18.485Z,3.70
2022-12-29T13:30:42.396Z,3.70
2022-12-29T13:32:08.057Z,3.70
2022-12-29T13:33:43.086Z,3.70
2022-12-29T13:35:22.148Z,3.70
2022-12-29T13:36:51.105Z,3.70
2022-12-29T13:38:04.605Z,3.70
2022-12-29T13:39:26.831Z,3.70
2022-12-29T13:40:40.228Z,3.70
2022-12-29T13:42:05.177Z,3.70
2022-12-29T13:43:17.070Z,3.70
2022-12-29T13:44:40.064Z,3.70
2022-12-29T13:45:46.163Z,3.70
2022-12-29T13:46:52.338Z,3.70
2022-12-29T13:48:05.059Z,3.70
2022-12-29T13:49:20.219Z,3.70
2022-12-29T13:50:26.860Z,3.70
2022-12-29T13:51:34.564Z,3.70
2022-12-29T13:52:43.000Z,3.80
2022-12-29T13:54:12.422Z,3.80
2022-12-29T13:55:28.000Z,3.70
2022-12-29T13:57:15.387Z,3.80
2022-12-29T13:58:35.545Z,3.80
2022-12-29T14:00:00.356Z,3.70
2022-12-29T14:01:37.460Z,3.70
2022-12-29T14:02:51.386Z,3.70
2022-12-29T14:03:58.674Z,3.70
2022-12-29T14:05:27.425Z,3.70
2022-12-29T14:06:34.267Z,3.70
2022-12-29T14:07:40.828Z,3.70
2022-12-29T14:08:43.739Z,3.70
2022-12-29T14:09:52.769Z,3.80
2022-12-29T14:10:56.570Z,3.70
2022-12-29T14:11:58.810Z,3.70
2022-12-29T14:13:14.800Z,3.80
2022-12-29T14:14:22.426Z,3.80
2022-12-29T14:15:27.436Z,3.70
2022-12-29T14:16:36.249Z,3.80
2022-12-29T14:17:41.185Z,3.80
2022-12-29T14:18:45.934Z,3.70
2022-12-29T14:19:53.229Z,3.80
2022-12-29T14:21:09.355Z,3.80
2022-12-29T14:22:14.433Z,3.80
2022-12-29T14:23:28.067Z,3.80
2022-12-29T14:24:36.024Z,3.70
2022-12-29T14:26:01.791Z,3.70
2022-12-29T14:27:44.187Z,3.80
2022-12-29T14:28:50.640Z,3.70
2022-12-29T14:29:53.239Z,3.80
2022-12-29T14:30:57.588Z,3.70
2022-12-29T14:32:00.650Z,3.70
2022-12-29T14:33:05.898Z,3.80
2022-12-29T14:34:08.445Z,3.80
2022-12-29T14:35:41.203Z,3.80
2022-12-29T14:37:03.246Z,3.80
2022-12-29T14:38:23.665Z,3.80
2022-12-29T14:39:42.679Z,3.80
2022-12-29T14:40:45.834Z,3.80
2022-12-29T14:41:48.967Z,3.70
2022-12-29T14:42:55.044Z,3.80
2022-12-29T14:44:17.303Z,3.90
2022-12-29T14:45:19.982Z,3.80
2022-12-29T14:46:22.499Z,3.80
2022-12-29T14:47:36.726Z,3.80
2022-12-29T14:48:44.135Z,3.80
2022-12-29T14:49:47.182Z,3.80
2022-12-29T14:50:49.501Z,3.80
2022-12-29T14:51:54.518Z,3.80
2022-12-29T14:53:07.490Z,3.80
2022-12-29T14:54:32.522Z,3.80
2022-12-29T14:55:49.731Z,3.80
2022-12-29T14:56:51.956Z,3.80
2022-12-29T14:58:01.965Z,3.80
2022-12-29T14:59:10.380Z,3.80
2022-12-29T15:00:18.094Z,3.80
2022-12-29T15:01:49.708Z,3.80
2022-12-29T15:03:17.239Z,3.80
2022-12-29T15:04:32.118Z,3.80
2022-12-29T15:05:50.890Z,3.80
2022-12-29T15:06:53.888Z,3.80
2022-12-29T15:07:57.867Z,3.80
2022-12-29T15:09:21.904Z,3.80
2022-12-29T15:10:25.268Z,3.80
2022-12-29T15:11:45.375Z,3.80
2022-12-29T15:12:53.896Z,3.80
2022-12-29T15:13:56.424Z,3.80
2022-12-29T15:15:00.259Z,3.80
2022-12-29T15:16:04.777Z,3.80
2022-12-29T15:17:25.383Z,3.80
2022-12-29T15:18:31.897Z,3.80
2022-12-29T15:19:39.722Z,3.80
2022-12-29T15:20:45.247Z,3.80
2022-12-29T15:21:48.701Z,3.80
2022-12-29T15:22:55.575Z,3.80
2022-12-29T15:23:57.964Z,3.80
2022-12-29T15:25:00.036Z,3.80
2022-12-29T15:26:07.976Z,3.80
2022-12-29T15:27:32.220Z,3.80
2022-12-29T15:28:46.377Z,3.90
2022-12-29T15:29:49.206Z,3.80
2022-12-29T15:30:56.867Z,3.80
2022-12-29T15:32:11.486Z,3.80
2022-12-29T15:33:20.648Z,3.80
2022-12-29T15:34:23.741Z,3.80
2022-12-29T15:35:33.491Z,3.80
2022-12-29T15:36:39.981Z,3.80
2022-12-29T15:37:42.074Z,3.80
2022-12-29T15:38:44.208Z,3.80
2022-12-29T15:39:46.270Z,3.80
2022-12-29T15:40:48.302Z,3.90
2022-12-29T15:42:01.111Z,3.80
2022-12-29T15:43:03.231Z,3.90
2022-12-29T15:44:19.787Z,3.80
2022-12-29T15:45:22.422Z,3.80
2022-12-29T15:46:24.636Z,3.80
2022-12-29T15:47:30.797Z,3.80
2022-12-29T15:48:34.168Z,3.80
2022-12-29T15:49:37.164Z,3.80
2022-12-29T15:50:40.093Z,3.80
2022-12-29T15:51:44.819Z,3.80
2022-12-29T15:52:47.522Z,3.80
2022-12-29T15:53:52.857Z,3.80
2022-12-29T15:54:55.521Z,3.90
2022-12-29T15:56:10.014Z,3.80
2022-12-29T15:57:26.610Z,3.90
2022-12-29T15:58:40.492Z,3.90
2022-12-29T15:59:48.159Z,3.80
2022-12-29T16:00:59.184Z,3.80
2022-12-29T16:02:07.329Z,3.80
2022-12-29T16:03:16.748Z,3.80
2022-12-29T16:04:19.969Z,3.80
2022-12-29T16:05:24.848Z,3.80
2022-12-29T16:06:34.138Z,3.80
2022-12-29T16:07:42.121Z,3.80
2022-12-29T16:08:46.358Z,3.80
2022-12-29T16:09:51.320Z,3.90
2022-12-29T16:10:57.965Z,3.90
2022-12-29T16:12:07.675Z,3.90
2022-12-29T16:13:24.611Z,3.90
2022-12-29T16:14:51.174Z,3.90
2022-12-29T16:16:03.506Z,3.90
2022-12-29T16:17:07.811Z,3.80
2022-12-29T16:18:27.001Z,3.90
2022-12-29T16:19:40.711Z,3.80
2022-12-29T16:20:44.172Z,3.80
2022-12-29T16:21:47.869Z,3.80
2022-12-29T16:22:56.363Z,3.90
2022-12-29T16:24:08.451Z,3.80
2022-12-29T16:25:42.559Z,3.80
2022-12-29T16:27:01.363Z,3.90
2022-12-29T16:28:35.185Z,3.80
2022-12-29T16:29:38.211Z,3.90
2022-12-29T16:30:41.451Z,3.80
2022-12-29T16:32:02.050Z,3.90
2022-12-29T16:33:06.714Z,3.90
2022-12-29T16:34:32.986Z,3.80
2022-12-29T16:35:49.321Z,3.90
2022-12-29T16:36:55.761Z,3.90
2022-12-29T16:38:13.185Z,3.80
2022-12-29T16:39:40.808Z,3.90
2022-12-29T16:41:04.240Z,3.80
2022-12-29T16:42:39.226Z,3.90
2022-12-29T16:43:43.607Z,3.80
2022-12-29T16:44:45.600Z,3.90
2022-12-29T16:45:48.629Z,3.90
2022-12-29T16:47:11.759Z,3.90
2022-12-29T16:48:22.702Z,3.90
2022-12-29T16:49:25.649Z,3.90
2022-12-29T16:50:30.519Z,3.90
2022-12-29T16:51:39.029Z,3.90
2022-12-29T16:52:41.458Z,3.90
2022-12-29T16:53:52.779Z,3.90
2022-12-29T16:55:01.380Z,3.90
2022-12-29T16:56:23.260Z,3.90
2022-12-29T16:57:29.748Z,3.90
2022-12-29T16:58:33.112Z,3.90
2022-12-29T16:59:38.946Z,3.90
2022-12-29T17:00:41.025Z,3.90
2022-12-29T17:01:43.295Z,3.90
2022-12-29T17:02:46.234Z,3.90
2022-12-29T17:03:59.438Z,3.90
2022-12-29T17:05:01.494Z,3.90
2022-12-29T17:06:04.217Z,3.90
2022-12-29T17:07:22.454Z,3.90
2022-12-29T17:08:24.711Z,3.90
2022-12-29T17:09:39.617Z,4.00
2022-12-29T17:11:01.430Z,4.00
2022-12-29T17:12:10.794Z,4.00
2022-12-29T17:13:16.917Z,4.10
2022-12-29T17:14:31.296Z,4.10
2022-12-29T17:15:35.360Z,4.20
2022-12-29T17:16:37.625Z,4.10
2022-12-29T17:17:49.055Z,4.20
2022-12-29T17:18:54.010Z,4.20
2022-12-29T17:20:04.424Z,4.20
2022-12-29T17:21:10.320Z,4.20
2022-12-29T17:22:22.400Z,4.30
2022-12-29T17:23:26.793Z,4.30
2022-12-29T17:24:31.531Z,4.30
2022-12-29T17:25:39.766Z,4.30
2022-12-29T17:26:42.425Z,4.30
2022-12-29T17:27:57.062Z,4.30
2022-12-29T17:29:13.874Z,4.30
2022-12-29T17:30:33.902Z,4.30
2022-12-29T17:31:40.848Z,4.30
2022-12-29T17:32:45.877Z,4.30
2022-12-29T17:33:49.282Z,4.30
2022-12-29T17:34:51.423Z,4.30
2022-12-29T17:35:55.603Z,4.20
2022-12-29T17:36:58.300Z,4.20
2022-12-29T17:38:01.027Z,4.20
2022-12-29T17:39:03.374Z,4.20
2022-12-29T17:40:08.848Z,4.20
2022-12-29T17:41:17.324Z,4.20
2022-12-29T17:42:20.427Z,4.20
2022-12-29T17:43:22.840Z,4.20
2022-12-29T17:44:26.335Z,4.10
2022-12-29T17:45:32.758Z,4.10
2022-12-29T17:46:34.819Z,4.10
2022-12-29T17:47:36.857Z,4.10
2022-12-29T17:48:38.758Z,4.10
2022-12-29T17:49:40.778Z,4.10
2022-12-29T17:50:43.857Z,4.20
2022-12-29T17:51:47.437Z,4.10
2022-12-29T17:53:08.479Z,4.10
2022-12-29T17:54:30.921Z,4.10
2022-12-29T17:55:38.274Z,4.20
2022-12-29T17:56:42.825Z,4.30
2022-12-29T17:57:46.842Z,4.30
2022-12-29T17:58:49.373Z,4.30
2022-12-29T18:00:04.954Z,4.30
2022-12-29T18:01:07.634Z,4.30
2022-12-29T18:02:36.276Z,4.30
2022-12-29T18:03:46.024Z,4.30
2022-12-29T18:04:59.629Z,4.30
2022-12-29T18:06:14.615Z,4.30
2022-12-29T18:07:17.361Z,4.40
2022-12-29T18:08:31.985Z,4.40
2022-12-29T18:10:01.982Z,4.40
2022-12-29T18:11:05.150Z,4.40
2022-12-29T18:12:35.873Z,4.40
2022-12-29T18:13:46.285Z,4.40
2022-12-29T18:14:49.821Z,4.40
2022-12-29T18:15:57.269Z,4.40
2022-12-29T18:16:59.302Z,4.30
2022-12-29T18:18:11.747Z,4.30
2022-12-29T18:19:14.938Z,4.30
2022-12-29T18:20:17.331Z,4.30
2022-12-29T18:21:21.893Z,4.30
2022-12-29T18:22:25.264Z,4.20
2022-12-29T18:23:33.338Z,4.40
2022-12-29T18:24:35.529Z,4.30
2022-12-29T18:25:56.240Z,4.30
2022-12-29T18:26:58.283Z,4.30
2022-12-29T18:28:00.633Z,4.30
2022-12-29T18:29:02.906Z,4.30
2022-12-29T18:30:05.927Z,4.30
2022-12-29T18:31:22.289Z,4.30
2022-12-29T18:32:24.776Z,4.30
2022-12-29T18:33:28.431Z,4.20
2022-12-29T18:34:30.561Z,4.20
2022-12-29T18:35:39.765Z,4.20
2022-12-29T18:36:44.993Z,4.20
2022-12-29T18:37:48.873Z,4.20
2022-12-29T18:38:54.479Z,4.20
2022-12-29T18:39:57.376Z,4.20
2022-12-29T18:40:59.865Z,4.20
2022-12-29T18:42:02.580Z,4.30
2022-12-29T18:43:05.465Z,4.30
2022-12-29T18:44:13.489Z,4.20
2022-12-29T18:45:21.740Z,4.30
2022-12-29T18:46:25.298Z,4.20
2022-12-29T18:47:27.560Z,4.30
2022-12-29T18:48:29.697Z,4.20
2022-12-29T18:49:31.534Z,4.20
2022-12-29T18:50:34.037Z,4.20
2022-12-29T18:51:36.255Z,4.20
2022-12-29T18:52:38.374Z,4.20
2022-12-29T18:53:41.103Z,4.20
2022-12-29T18:54:43.302Z,4.20
2022-12-29T18:55:45.429Z,4.20
2022-12-29T18:56:47.796Z,4.30
2022-12-29T18:57:50.696Z,4.30
2022-12-29T18:58:54.044Z,4.30
2022-12-29T18:59:57.563Z,4.30